createdAt,value
2022-10-19T00:02:51.300Z,101113.38
2022-10-19T00:05:53.536Z,101102.91
2022-10-19T00:08:56.996Z,101104.25
2022-10-19T00:11:59.243Z,101106.91
2022-10-19T00:15:01.202Z,101099.69
2022-10-19T00:18:03.455Z,101105.66
2022-10-19T00:21:09.271Z,101097.63
2022-10-19T00:24:11.597Z,101097.91
2022-10-19T00:27:13.565Z,101083.63
2022-10-19T00:30:16.808Z,101085.69
2022-10-19T00:33:21.902Z,101093.25
2022-10-19T00:36:28.543Z,101089.00
2022-10-19T00:39:30.515Z,101082.06
2022-10-19T00:42:33.046Z,101082.47
2022-10-19T00:45:35.161Z,101079.34
2022-10-19T00:48:37.402Z,101064.19
2022-10-19T00:51:40.872Z,101057.00
2022-10-19T00:54:44.410Z,101066.84
2022-10-19T00:57:46.367Z,101060.69
2022-10-19T01:00:48.686Z,101063.91
2022-10-19T01:03:50.671Z,101053.41
2022-10-19T01:06:53.585Z,101042.25
2022-10-19T01:09:56.017Z,101041.41
2022-10-19T01:13:06.842Z,101044.22
2022-10-19T01:16:16.383Z,101036.84
2022-10-19T01:19:39.163Z,101028.12
2022-10-19T01:22:44.070Z,101025.41
2022-10-19T01:25:49.003Z,101028.97
2022-10-19T01:28:56.793Z,101021.34
2022-10-19T01:31:59.113Z,101022.06
2022-10-19T01:35:07.361Z,101025.97
2022-10-19T01:38:09.541Z,101021.78
2022-10-19T01:41:14.997Z,101018.66
2022-10-19T01:44:29.306Z,101019.19
2022-10-19T01:47:50.162Z,101008.28
2022-10-19T01:50:57.450Z,100999.56
2022-10-19T01:54:02.050Z,101001.25
2022-10-19T01:57:06.358Z,101003.16
2022-10-19T02:00:10.747Z,100996.34
2022-10-19T02:03:14.037Z,101005.59
2022-10-19T02:06:16.599Z,100998.44
2022-10-19T02:09:18.585Z,101003.53
2022-10-19T02:12:21.503Z,101004.94
2022-10-19T02:15:25.906Z,101001.44
2022-10-19T02:18:33.381Z,100997.00
2022-10-19T02:21:35.475Z,101005.44
2022-10-19T02:24:37.688Z,100998.25
2022-10-19T02:27:42.045Z,101001.66
2022-10-19T02:30:44.389Z,100996.25
2022-10-19T02:33:46.381Z,101000.50
2022-10-19T02:36:48.803Z,101008.75
2022-10-19T02:39:50.721Z,101006.00
2022-10-19T02:42:56.614Z,101006.28
2022-10-19T02:46:11.815Z,100995.50
2022-10-19T02:49:14.595Z,101004.28
2022-10-19T02:52:16.557Z,101002.38
2022-10-19T02:55:18.819Z,100995.09
2022-10-19T02:58:20.739Z,100993.97
2022-10-19T03:01:23.071Z,100996.91
2022-10-19T03:04:25.025Z,100999.34
2022-10-19T03:07:27.249Z,101000.63
2022-10-19T03:10:29.145Z,100992.63
2022-10-19T03:13:31.554Z,101000.81
2022-10-19T03:16:33.446Z,101004.00
2022-10-19T03:19:36.031Z,101005.69
2022-10-19T03:22:37.933Z,100997.06
2022-10-19T03:25:40.165Z,101001.31
2022-10-19T03:28:42.275Z,100989.22
2022-10-19T03:31:44.926Z,100984.12
2022-10-19T03:34:46.838Z,100984.72
2022-10-19T03:37:49.050Z,100986.91
2022-10-19T03:40:50.997Z,100987.88
2022-10-19T03:43:53.367Z,100989.59
2022-10-19T03:46:55.311Z,100993.47
2022-10-19T03:49:57.582Z,100984.97
2022-10-19T03:52:59.509Z,100981.72
2022-10-19T03:56:20.667Z,100986.19
2022-10-19T03:59:24.266Z,100978.91
2022-10-19T04:02:26.419Z,100978.94
2022-10-19T04:05:28.590Z,100971.78
2022-10-19T04:08:30.521Z,100974.81
2022-10-19T04:11:33.445Z,100982.91
2022-10-19T04:14:52.451Z,100983.03
2022-10-19T04:17:58.145Z,100977.34
2022-10-19T04:21:01.510Z,100992.47
2022-10-19T04:24:08.633Z,100994.91
2022-10-19T04:27:10.508Z,101006.59
2022-10-19T04:30:12.737Z,101006.78
2022-10-19T04:33:14.704Z,100992.87
2022-10-19T04:36:16.990Z,100984.88
2022-10-19T04:39:18.938Z,100979.56
2022-10-19T04:42:21.131Z,100980.75
2022-10-19T04:45:23.020Z,100987.16
2022-10-19T04:48:25.215Z,100984.03
2022-10-19T04:51:27.583Z,100985.25
2022-10-19T04:54:29.757Z,100985.59
2022-10-19T04:57:31.863Z,100987.47
2022-10-19T05:00:34.365Z,100986.47
2022-10-19T05:03:36.511Z,100984.53
2022-10-19T05:06:38.686Z,100991.25
2022-10-19T05:09:40.618Z,100986.66
2022-10-19T05:12:42.804Z,100990.28
2022-10-19T05:15:54.649Z,100999.59
2022-10-19T05:18:58.685Z,101000.88
2022-10-19T05:22:00.556Z,100999.81
2022-10-19T05:25:02.749Z,101011.06
2022-10-19T05:28:04.624Z,100998.00
2022-10-19T05:31:11.598Z,101010.69
2022-10-19T05:34:13.486Z,101007.28
2022-10-19T05:37:16.531Z,101002.06
2022-10-19T05:40:18.474Z,101003.03
2022-10-19T05:43:20.727Z,101017.09
2022-10-19T05:46:23.342Z,101015.16
2022-10-19T05:49:25.532Z,101016.63
2022-10-19T05:52:27.686Z,101025.00
2022-10-19T05:55:29.858Z,101021.53
2022-10-19T05:58:31.791Z,101022.72
2022-10-19T06:01:34.126Z,101024.94
2022-10-19T06:04:36.339Z,101036.78
2022-10-19T06:07:38.230Z,101039.72
2022-10-19T06:10:40.396Z,101043.47
2022-10-19T06:13:43.449Z,101043.59
2022-10-19T06:16:48.729Z,101049.03
2022-10-19T06:19:50.645Z,101053.78
2022-10-19T06:22:52.769Z,101055.38
2022-10-19T06:25:54.687Z,101053.97
2022-10-19T06:29:00.105Z,101063.69
2022-10-19T06:32:02.101Z,101062.12
2022-10-19T06:35:04.377Z,101074.59
2022-10-19T06:38:06.328Z,101073.00
2022-10-19T06:41:09.059Z,101075.22
2022-10-19T06:44:10.944Z,101077.53
2022-10-19T06:47:13.066Z,101079.47
2022-10-19T06:50:14.934Z,101079.72
2022-10-19T06:53:17.161Z,101094.16
2022-10-19T06:56:19.547Z,101088.13
2022-10-19T06:59:21.739Z,101098.75
2022-10-19T07:02:23.698Z,101104.44
2022-10-19T07:05:25.921Z,101107.59
2022-10-19T07:08:29.190Z,101109.06
2022-10-19T07:11:31.481Z,101116.25
2022-10-19T07:14:38.589Z,101120.59
2022-10-19T07:17:40.725Z,101115.22
2022-10-19T07:20:42.608Z,101123.47
2022-10-19T07:23:45.620Z,101120.94
2022-10-19T07:26:47.601Z,101135.25
2022-10-19T07:29:49.881Z,101137.25
2022-10-19T07:32:51.765Z,101143.44
2022-10-19T07:35:58.817Z,101138.56
2022-10-19T07:39:01.010Z,101144.94
2022-10-19T07:42:05.000Z,101138.50
2022-10-19T07:45:07.114Z,101147.84
2022-10-19T07:48:09.333Z,101144.06
2022-10-19T07:51:12.735Z,101150.75
2022-10-19T07:54:15.307Z,101148.47
2022-10-19T07:57:17.411Z,101147.25
2022-10-19T08:00:19.648Z,101138.97
2022-10-19T08:06:43.741Z,101142.53
2022-10-19T08:09:53.401Z,101139.59
2022-10-19T08:12:56.011Z,101134.12
2022-10-19T08:15:58.167Z,101128.16
2022-10-19T08:19:01.493Z,101132.31
2022-10-19T08:22:03.708Z,101135.91
2022-10-19T08:25:05.891Z,101135.06
2022-10-19T08:28:08.167Z,101142.16
2022-10-19T08:31:11.034Z,101142.84
2022-10-19T08:34:13.703Z,101144.41
2022-10-19T08:37:39.638Z,101126.97
2022-10-19T08:40:37.726Z,101135.47
2022-10-19T08:43:46.084Z,101139.34
2022-10-19T08:47:07.765Z,101137.09
2022-10-19T08:50:29.296Z,101144.34
2022-10-19T08:53:32.401Z,101142.09
2022-10-19T08:56:50.412Z,101137.47
2022-10-19T08:59:59.604Z,101137.63
2022-10-19T09:03:27.165Z,101146.72
2022-10-19T09:06:49.722Z,101140.84
2022-10-19T09:09:56.040Z,101142.25
2022-10-19T09:13:03.170Z,101140.16
2022-10-19T09:16:05.432Z,101142.56
2022-10-19T09:19:17.905Z,101147.12
2022-10-19T09:22:21.478Z,101141.63
2022-10-19T09:25:25.443Z,101137.00
2022-10-19T09:28:42.836Z,101137.41
2022-10-19T09:31:45.218Z,101136.28
2022-10-19T09:34:51.098Z,101141.34
2022-10-19T09:37:54.666Z,101143.41
2022-10-19T09:40:57.221Z,101138.37
2022-10-19T09:43:59.471Z,101145.91
2022-10-19T09:47:19.658Z,101140.44
2022-10-19T09:50:23.180Z,101149.97
2022-10-19T09:53:26.711Z,101157.44
2022-10-19T09:56:28.951Z,101145.31
2022-10-19T09:59:36.181Z,101142.25
2022-10-19T10:02:38.612Z,101133.97
2022-10-19T10:05:41.292Z,101131.44
2022-10-19T10:08:48.075Z,101123.84
2022-10-19T10:11:51.052Z,101116.34
2022-10-19T10:14:54.080Z,101126.69
2022-10-19T10:17:57.210Z,101116.13
2022-10-19T10:21:06.794Z,101119.03
2022-10-19T10:24:12.593Z,101116.13
2022-10-19T10:27:25.029Z,101106.53
2022-10-19T10:30:29.216Z,101103.25
2022-10-19T10:33:44.355Z,101095.44
2022-10-19T10:36:49.237Z,101093.31
2022-10-19T10:39:57.721Z,101087.19
2022-10-19T10:43:06.156Z,101086.72
2022-10-19T10:46:13.916Z,101081.03
2022-10-19T10:49:19.884Z,101077.97
2022-10-19T10:52:21.894Z,101072.25
2022-10-19T10:55:26.488Z,101075.06
2022-10-19T10:58:44.638Z,101072.69
2022-10-19T11:02:04.196Z,101067.37
2022-10-19T11:05:10.829Z,101054.91
2022-10-19T11:08:18.507Z,101062.94
2022-10-19T11:11:30.427Z,101057.13
2022-10-19T11:14:37.025Z,101044.72
2022-10-19T11:17:41.198Z,101052.16
2022-10-19T11:20:49.307Z,101053.97
2022-10-19T11:23:54.210Z,101049.12
2022-10-19T11:27:22.797Z,101048.53
2022-10-19T11:30:25.292Z,101050.06
2022-10-19T11:33:38.778Z,101045.88
2022-10-19T11:36:43.824Z,101047.00
2022-10-19T11:40:05.212Z,101049.19
2022-10-19T11:43:30.378Z,101035.75
2022-10-19T11:46:38.140Z,101035.72
2022-10-19T11:49:58.712Z,101036.00
2022-10-19T11:53:10.861Z,101033.31
2022-10-19T11:56:17.170Z,101034.81
2022-10-19T11:59:38.489Z,101043.50
2022-10-19T12:02:40.620Z,101027.56
2022-10-19T12:06:12.711Z,101030.69
2022-10-19T12:09:33.365Z,101034.31
2022-10-19T12:12:49.616Z,101017.22
2022-10-19T12:15:53.922Z,101034.41
2022-10-19T12:19:00.673Z,101021.88
2022-10-19T12:22:04.534Z,101016.72
2022-10-19T12:25:06.938Z,101017.16
2022-10-19T12:28:11.003Z,101007.00
2022-10-19T12:31:14.068Z,101012.03
2022-10-19T12:34:22.372Z,101004.62
2022-10-19T12:37:24.736Z,101002.75
2022-10-19T12:40:37.218Z,100993.63
2022-10-19T12:43:49.191Z,100998.06
2022-10-19T12:46:56.431Z,100996.56
2022-10-19T12:50:05.262Z,100984.44
2022-10-19T12:53:07.352Z,100990.72
2022-10-19T12:56:23.782Z,100988.16
2022-10-19T12:59:27.313Z,100986.72
2022-10-19T13:02:35.354Z,100985.44
2022-10-19T13:05:37.462Z,100980.09
2022-10-19T13:08:47.262Z,100981.12
2022-10-19T13:12:25.605Z,100974.19
2022-10-19T13:15:34.547Z,100967.06
2022-10-19T13:19:01.668Z,100960.81
2022-10-19T13:22:25.614Z,100957.44
2022-10-19T13:25:35.040Z,100962.19
2022-10-19T13:28:38.322Z,100960.81
2022-10-19T13:31:40.523Z,100957.56
2022-10-19T13:34:42.713Z,100972.06
2022-10-19T13:37:44.725Z,100970.91
2022-10-19T13:40:52.777Z,100982.00
2022-10-19T13:44:03.072Z,100983.50
2022-10-19T13:47:08.106Z,100976.72
2022-10-19T13:50:19.155Z,100987.62
2022-10-19T13:53:24.827Z,100985.75
2022-10-19T13:56:33.021Z,100987.97
2022-10-19T13:59:54.827Z,100979.22
2022-10-19T14:02:56.916Z,100986.00
2022-10-19T14:06:06.323Z,100978.72
2022-10-19T14:09:27.223Z,100970.59
2022-10-19T14:12:31.073Z,100973.91
2022-10-19T14:15:34.590Z,100974.81
2022-10-19T14:18:37.676Z,100971.72
2022-10-19T14:21:40.002Z,100985.38
2022-10-19T14:24:42.202Z,100992.66
2022-10-19T14:27:45.125Z,100981.88
2022-10-19T14:30:54.455Z,100986.59
2022-10-19T14:33:59.882Z,100980.19
2022-10-19T14:37:02.109Z,100979.63
2022-10-19T14:40:08.710Z,100989.81
2022-10-19T14:43:24.302Z,100987.31
2022-10-19T14:46:26.967Z,101001.47
2022-10-19T14:49:29.920Z,100984.00
2022-10-19T14:52:34.530Z,100973.00
2022-10-19T14:55:39.548Z,100992.44
2022-10-19T14:58:47.217Z,100979.63
2022-10-19T15:01:53.601Z,100971.72
2022-10-19T15:04:57.154Z,100977.44
2022-10-19T15:08:06.310Z,100977.56
2022-10-19T15:11:19.317Z,100979.97
2022-10-19T15:14:23.317Z,100988.78
2022-10-19T15:17:30.410Z,100984.97
2022-10-19T15:20:44.276Z,100995.94
2022-10-19T15:24:15.949Z,100990.00
2022-10-19T15:27:19.303Z,100980.66
2022-10-19T15:30:26.365Z,100984.28
2022-10-19T15:33:28.623Z,100986.63
2022-10-19T15:36:31.362Z,100993.72
2022-10-19T15:39:40.987Z,101000.72
2022-10-19T15:42:46.911Z,100981.03
2022-10-19T15:45:58.817Z,100976.53
2022-10-19T15:49:04.331Z,100968.63
2022-10-19T15:52:25.715Z,100988.09
2022-10-19T15:55:27.650Z,100993.75
2022-10-19T15:58:29.972Z,101000.50
2022-10-19T16:01:32.731Z,101009.87
2022-10-19T16:04:34.885Z,101000.06
2022-10-19T16:07:38.455Z,101009.00
2022-10-19T16:10:40.787Z,101003.44
2022-10-19T16:13:42.751Z,101009.25
2022-10-19T16:16:44.981Z,101012.03
2022-10-19T16:19:47.178Z,101038.13
2022-10-19T16:22:49.362Z,101037.53
2022-10-19T16:25:52.823Z,101047.72
2022-10-19T16:28:55.500Z,101044.13
2022-10-19T16:31:57.493Z,101037.09
2022-10-19T16:34:59.719Z,101032.00
2022-10-19T16:38:01.682Z,101036.72
2022-10-19T16:41:05.857Z,101014.66
2022-10-19T16:44:10.774Z,101012.47
2022-10-19T16:47:13.832Z,101023.75
2022-10-19T16:50:15.758Z,101041.19
2022-10-19T16:53:17.901Z,101056.09
2022-10-19T16:56:20.114Z,101060.22
2022-10-19T16:59:22.305Z,101065.41
2022-10-19T17:02:24.251Z,101063.94
2022-10-19T17:05:26.598Z,101063.47
2022-10-19T17:08:36.780Z,101063.09
2022-10-19T17:11:39.640Z,101067.97
2022-10-19T17:14:42.072Z,101078.84
2022-10-19T17:17:44.293Z,101090.78
2022-10-19T17:20:46.197Z,101095.16
2022-10-19T17:23:51.323Z,101094.03
2022-10-19T17:26:54.426Z,101085.91
2022-10-19T17:29:56.667Z,101089.44
2022-10-19T17:32:59.613Z,101103.75
2022-10-19T17:36:05.781Z,101097.16
2022-10-19T17:39:09.158Z,101095.13
2022-10-19T17:42:12.369Z,101099.34
2022-10-19T17:45:14.648Z,101101.28
2022-10-19T17:48:16.805Z,101092.56
2022-10-19T17:51:20.208Z,101095.34
2022-10-19T17:54:22.428Z,101098.97
2022-10-19T17:57:24.375Z,101096.62
2022-10-19T18:00:26.629Z,101104.00
2022-10-19T18:03:29.685Z,101107.44
2022-10-19T18:06:33.396Z,101108.84
2022-10-19T18:09:35.574Z,101115.78
2022-10-19T18:12:37.516Z,101114.63
2022-10-19T18:15:39.711Z,101104.63
2022-10-19T18:18:43.738Z,101103.00
2022-10-19T18:21:46.846Z,101119.50
2022-10-19T18:24:49.518Z,101131.41
2022-10-19T18:27:51.679Z,101138.09
2022-10-19T18:30:53.549Z,101133.13
2022-10-19T18:33:57.900Z,101131.94
2022-10-19T18:36:59.887Z,101142.06
2022-10-19T18:40:02.057Z,101138.34
2022-10-19T18:43:05.063Z,101122.81
2022-10-19T18:46:08.203Z,101138.44
2022-10-19T18:49:11.162Z,101144.94
2022-10-19T18:52:13.458Z,101163.66
2022-10-19T18:55:15.436Z,101161.50
2022-10-19T18:58:17.650Z,101170.88
2022-10-19T19:01:19.565Z,101177.84
2022-10-19T19:04:21.856Z,101196.09
2022-10-19T19:07:23.913Z,101191.19
2022-10-19T19:10:26.098Z,101185.81
2022-10-19T19:13:27.983Z,101193.44
2022-10-19T19:16:32.454Z,101185.47
2022-10-19T19:19:34.350Z,101182.19
2022-10-19T19:22:37.038Z,101187.38
2022-10-19T19:25:39.924Z,101172.63
2022-10-19T19:28:46.374Z,101169.22
2022-10-19T19:31:53.480Z,101168.06
2022-10-19T19:34:55.705Z,101181.00
2022-10-19T19:37:57.642Z,101185.59
2022-10-19T19:40:59.848Z,101190.56
2022-10-19T19:44:01.798Z,101203.81
2022-10-19T19:47:04.246Z,101216.69
2022-10-19T19:50:06.450Z,101219.87
2022-10-19T19:53:08.647Z,101219.34
2022-10-19T19:56:11.592Z,101213.37
2022-10-19T19:59:13.799Z,101217.66
2022-10-19T20:02:16.478Z,101219.72
2022-10-19T20:05:19.054Z,101225.78
2022-10-19T20:08:20.947Z,101226.06
2022-10-19T20:11:24.389Z,101218.69
2022-10-19T20:14:26.322Z,101223.63
2022-10-19T20:17:28.479Z,101229.75
2022-10-19T20:20:30.393Z,101240.94
2022-10-19T20:23:32.635Z,101245.50
2022-10-19T20:26:34.809Z,101257.50
2022-10-19T20:29:37.007Z,101246.44
2022-10-19T20:32:39.008Z,101258.78
2022-10-19T20:35:41.249Z,101270.56
2022-10-19T20:38:48.070Z,101261.69
2022-10-19T20:41:50.221Z,101262.25
2022-10-19T20:44:54.638Z,101263.66
2022-10-19T20:47:56.823Z,101262.81
2022-10-19T20:51:31.577Z,101271.91
2022-10-19T20:54:34.082Z,101265.56
2022-10-19T20:57:36.030Z,101264.53
2022-10-19T21:00:38.219Z,101267.75
2022-10-19T21:03:40.718Z,101271.91
2022-10-19T21:06:44.311Z,101267.66
2022-10-19T21:09:46.219Z,101270.50
2022-10-19T21:12:48.444Z,101273.87
2022-10-19T21:15:50.393Z,101276.44
2022-10-19T21:18:52.581Z,101285.63
2022-10-19T21:21:56.172Z,101289.44
2022-10-19T21:24:58.426Z,101289.44
2022-10-19T21:28:00.407Z,101282.53
2022-10-19T21:31:06.737Z,101281.28
2022-10-19T21:34:09.407Z,101283.66
2022-10-19T21:37:11.675Z,101284.78
2022-10-19T21:40:13.610Z,101287.53
2022-10-19T21:43:15.835Z,101287.59
2022-10-19T21:46:19.252Z,101290.06
2022-10-19T21:49:21.463Z,101288.47
2022-10-19T21:52:23.377Z,101287.59
2022-10-19T21:55:26.160Z,101286.53
2022-10-19T21:58:28.045Z,101304.22
2022-10-19T22:01:37.117Z,101304.44
2022-10-19T22:04:42.470Z,101296.19
2022-10-19T22:07:44.329Z,101301.28
2022-10-19T22:10:46.519Z,101306.16
2022-10-19T22:13:49.073Z,101298.13
2022-10-19T22:16:51.279Z,101300.91
2022-10-19T22:19:53.241Z,101296.84
2022-10-19T22:22:55.422Z,101299.41
2022-10-19T22:25:57.386Z,101295.66
2022-10-19T22:29:00.590Z,101290.19
2022-10-19T22:32:02.600Z,101290.19
2022-10-19T22:35:05.399Z,101291.31
2022-10-19T22:38:07.301Z,101288.59
2022-10-19T22:41:47.283Z,101283.75
2022-10-19T22:45:08.175Z,101285.88
2022-10-19T22:48:10.487Z,101283.28
2022-10-19T22:51:12.519Z,101287.47
2022-10-19T22:54:15.085Z,101292.97
2022-10-19T22:57:17.134Z,101300.12
2022-10-19T23:00:19.443Z,101302.72
2022-10-19T23:03:21.378Z,101294.63
2022-10-19T23:06:23.663Z,101292.41
2022-10-19T23:09:25.614Z,101291.94
2022-10-19T23:12:27.847Z,101303.53
2022-10-19T23:15:29.819Z,101297.72
2022-10-19T23:18:33.035Z,101306.84
2022-10-19T23:21:34.962Z,101318.37
2022-10-19T23:24:37.179Z,101321.91
2022-10-19T23:27:39.367Z,101327.88
2022-10-19T23:30:41.758Z,101323.62
2022-10-19T23:33:44.158Z,101327.09
2022-10-19T23:36:46.444Z,101323.22
2022-10-19T23:39:48.375Z,101330.53
2022-10-19T23:42:50.668Z,101326.50
2022-10-19T23:45:52.646Z,101332.69
2022-10-19T23:48:54.872Z,101347.00
2022-10-19T23:51:56.839Z,101340.78
2022-10-19T23:54:59.023Z,101344.19
2022-10-19T23:58:00.953Z,101350.31
